Time;durP1;ratioP1;P1;durP2;ratioP2;P2;SDS_P1;SDS_P2;PMS_P1;PMS_P2;Temp;Humidity;BMP_temperature;BMP_pressure;BME280_temperature;BME280_humidity;BME280_pressure;Samples;Min_cycle;Max_cycle;Signal;HPM_P1;HPM_P2
2024/03/04 00:01:29;;;;;;;1.98;1.80;;;23.30;52.10;;;;;;5046666;28;20207;-34
2024/03/04 00:03:55;;;;;;;2.38;2.00;;;23.30;52.30;;;;;;5046401;28;20051;-34
2024/03/04 00:06:22;;;;;;;4.17;1.73;;;23.30;52.30;;;;;;5048832;28;20045;-34
2024/03/04 00:08:48;;;;;;;2.22;2.00;;;23.30;52.30;;;;;;5048691;28;20294;-34
2024/03/04 00:11:14;;;;;;;1.80;1.70;;;23.30;52.30;;;;;;5049860;28;20033;-33
2024/03/04 00:13:40;;;;;;;2.43;2.23;;;23.30;52.40;;;;;;5049667;28;20024;-34
2024/03/04 00:16:07;;;;;;;1.95;1.80;;;23.20;52.20;;;;;;5045713;28;20025;-33
2024/03/04 00:18:33;;;;;;;1.92;1.73;;;23.20;52.50;;;;;;5047052;28;21404;-34
2024/03/04 00:20:59;;;;;;;1.80;1.70;;;23.20;52.10;;;;;;5053817;28;20030;-34
2024/03/04 00:23:26;;;;;;;1.90;1.70;;;23.20;52.20;;;;;;5053880;28;20068;-33
2024/03/04 00:25:52;;;;;;;1.48;1.38;;;23.20;52.10;;;;;;5052547;28;20037;-34
2024/03/04 00:28:18;;;;;;;2.10;1.90;;;23.20;52.30;;;;;;5052821;28;20048;-37
2024/03/04 00:30:44;;;;;;;2.78;2.08;;;23.20;52.70;;;;;;5052008;28;20021;-34
2024/03/04 00:33:12;;;;;;;1.80;1.65;;;23.20;52.70;;;;;;5049125;28;20034;-33
2024/03/04 00:35:38;;;;;;;1.98;1.85;;;23.20;52.70;;;;;;5051602;28;20056;-33
2024/03/04 00:38:05;;;;;;;2.13;2.00;;;23.20;52.70;;;;;;5052183;28;20041;-33
2024/03/04 00:40:31;;;;;;;2.28;1.80;;;23.20;52.70;;;;;;5052466;28;20285;-33
2024/03/04 00:42:57;;;;;;;1.95;1.83;;;23.20;52.40;;;;;;5053194;28;20036;-35
2024/03/04 00:45:23;;;;;;;2.58;2.15;;;23.20;52.30;;;;;;5054576;28;20033;-33
2024/03/04 00:47:49;;;;;;;2.85;2.08;;;23.20;52.40;;;;;;5064597;28;20025;-33
2024/03/04 00:50:16;;;;;;;2.08;1.88;;;23.20;52.40;;;;;;5064319;28;20029;-33
2024/03/04 00:52:42;;;;;;;2.28;2.03;;;23.10;52.30;;;;;;5064064;28;20033;-33
2024/03/04 00:55:08;;;;;;;1.80;1.70;;;23.20;52.40;;;;;;5061276;28;20029;-33
2024/03/04 00:57:35;;;;;;;2.15;1.75;;;23.20;52.80;;;;;;5059015;28;20052;-33
2024/03/04 01:00:05;;;;;;;2.40;2.20;;;23.20;52.90;;;;;;5061502;28;20029;-33
2024/03/04 01:02:32;;;;;;;2.05;1.88;;;23.20;52.80;;;;;;5063967;28;20062;-33
2024/03/04 01:04:58;;;;;;;2.00;1.90;;;23.20;52.80;;;;;;5061348;28;20032;-33
2024/03/04 01:07:24;;;;;;;2.35;1.92;;;23.20;52.80;;;;;;5065553;28;20066;-34
2024/03/04 01:09:50;;;;;;;2.28;2.08;;;23.20;52.60;;;;;;5084411;28;20515;-33
2024/03/04 01:12:16;;;;;;;2.13;1.92;;;23.20;52.70;;;;;;5065620;28;20027;-33
2024/03/04 01:14:42;;;;;;;1.92;1.77;;;23.20;52.70;;;;;;5083663;28;20036;-34
2024/03/04 01:17:12;;;;;;;1.77;1.67;;;23.20;52.70;;;;;;5083918;28;20033;-33
2024/03/04 01:19:45;;;;;;;2.20;2.00;;;23.10;52.60;;;;;;5083274;28;20028;-33
2024/03/04 01:22:18;;;;;;;2.25;2.05;;;23.10;52.70;;;;;;5084290;28;20107;-34
2024/03/04 01:24:44;;;;;;;2.42;2.00;;;23.10;52.60;;;;;;5083036;28;20051;-34
2024/03/04 01:27:11;;;;;;;2.05;1.85;;;23.10;52.60;;;;;;5083738;28;20040;-34
2024/03/04 01:29:38;;;;;;;1.95;1.70;;;23.10;52.80;;;;;;5082976;28;20094;-34
2024/03/04 01:32:05;;;;;;;2.28;1.90;;;23.10;52.90;;;;;;5083809;28;20054;-34
2024/03/04 01:34:31;;;;;;;1.98;1.77;;;23.10;52.90;;;;;;5076034;28;20037;-33
2024/03/04 01:36:57;;;;;;;1.98;1.80;;;23.10;52.80;;;;;;5083615;28;20096;-33
2024/03/04 01:39:23;;;;;;;2.17;1.98;;;23.10;52.70;;;;;;5082920;28;20038;-33
2024/03/04 01:41:49;;;;;;;2.15;1.80;;;23.10;52.80;;;;;;5084323;28;20024;-33
2024/03/04 01:44:16;;;;;;;2.10;1.90;;;23.10;52.80;;;;;;5081833;28;20035;-33
2024/03/04 01:46:42;;;;;;;2.30;1.67;;;23.10;52.80;;;;;;5082657;28;20051;-33
2024/03/04 01:49:08;;;;;;;2.33;2.13;;;23.10;52.80;;;;;;5083271;28;20284;-34
2024/03/04 01:51:34;;;;;;;1.80;1.70;;;23.10;52.70;;;;;;5065109;28;20032;-33
2024/03/04 01:54:00;;;;;;;2.20;2.00;;;23.10;52.70;;;;;;5079476;28;20024;-33
2024/03/04 01:56:27;;;;;;;1.80;1.70;;;23.00;52.80;;;;;;5064766;28;20032;-34
2024/03/04 01:58:53;;;;;;;2.08;1.88;;;23.00;53.00;;;;;;5082931;28;20029;-33
2024/03/04 02:01:19;;;;;;;2.42;1.83;;;23.10;52.90;;;;;;5082808;28;20393;-41
2024/03/04 02:03:47;;;;;;;1.85;1.75;;;23.10;52.90;;;;;;5079691;28;20059;-33
2024/03/04 02:06:14;;;;;;;1.95;1.65;;;23.10;53.00;;;;;;5082829;28;20033;-33
2024/03/04 02:08:40;;;;;;;1.90;1.80;;;23.10;52.90;;;;;;5063551;28;20112;-33
2024/03/04 02:11:06;;;;;;;1.60;1.50;;;23.10;52.90;;;;;;5060073;28;20140;-33
2024/03/04 02:13:33;;;;;;;1.77;1.63;;;23.10;52.90;;;;;;5062603;28;20033;-33
2024/03/04 02:16:00;;;;;;;2.00;1.80;;;23.10;53.00;;;;;;5044892;28;20036;-33
2024/03/04 02:18:26;;;;;;;3.95;1.80;;;23.00;52.80;;;;;;5062423;28;20029;-33
2024/03/04 02:20:57;;;;;;;2.55;1.80;;;23.00;52.80;;;;;;5062845;28;20084;-33
2024/03/04 02:23:24;;;;;;;2.17;1.80;;;23.00;52.70;;;;;;5025956;28;20434;-33
2024/03/04 02:25:59;;;;;;;1.70;1.60;;;23.00;52.70;;;;;;5062621;28;20032;-33
2024/03/04 02:28:28;;;;;;;3.20;1.90;;;23.00;53.00;;;;;;5061318;28;20027;-33
2024/03/04 02:30:58;;;;;;;1.80;1.65;;;23.00;53.10;;;;;;5063062;28;20033;-33
2024/03/04 02:33:25;;;;;;;2.40;1.77;;;23.00;53.00;;;;;;5039567;28;20354;-33
2024/03/04 02:35:51;;;;;;;2.10;1.90;;;23.00;52.80;;;;;;5060860;28;20468;-34
2024/03/04 02:38:18;;;;;;;2.07;1.83;;;23.00;53.00;;;;;;5058588;28;20033;-33
2024/03/04 02:40:45;;;;;;;1.95;1.75;;;23.00;52.90;;;;;;5055886;28;20047;-33
2024/03/04 02:43:11;;;;;;;2.55;1.85;;;23.00;53.00;;;;;;5060980;28;20041;-33
2024/03/04 02:45:38;;;;;;;2.35;1.60;;;22.90;52.80;;;;;;5061453;28;20119;-34
2024/03/04 02:48:07;;;;;;;2.67;1.90;;;22.90;52.70;;;;;;5054397;28;20049;-33
2024/03/04 02:50:33;;;;;;;2.08;1.80;;;22.90;52.80;;;;;;5053915;28;20048;-34
2024/03/04 02:53:03;;;;;;;2.37;1.93;;;22.90;53.10;;;;;;5054380;28;20021;-34
2024/03/04 02:55:29;;;;;;;3.22;1.90;;;22.90;53.00;;;;;;5058779;28;20027;-38
2024/03/04 02:57:55;;;;;;;2.58;2.00;;;23.00;53.00;;;;;;5057322;28;20052;-34
2024/03/04 03:00:22;;;;;;;1.80;1.55;;;22.90;53.00;;;;;;5062175;28;20033;-34
2024/03/04 03:02:49;;;;;;;2.35;2.00;;;23.00;53.00;;;;;;5045056;28;20060;-34
2024/03/04 03:05:15;;;;;;;2.95;1.90;;;22.90;53.00;;;;;;5061407;28;20029;-34
2024/03/04 03:07:41;;;;;;;2.15;1.95;;;22.90;53.00;;;;;;5069135;28;20045;-34
2024/03/04 03:10:08;;;;;;;3.58;2.00;;;22.90;53.00;;;;;;5074725;28;20033;-33
2024/03/04 03:12:34;;;;;;;2.20;1.63;;;22.90;53.00;;;;;;5061770;28;20033;-34
2024/03/04 03:15:01;;;;;;;2.15;1.83;;;22.90;53.00;;;;;;5081412;28;20025;-34
2024/03/04 03:17:27;;;;;;;2.08;1.88;;;22.80;52.90;;;;;;5062149;28;20029;-34
2024/03/04 03:19:54;;;;;;;3.72;1.85;;;22.80;53.00;;;;;;5081898;28;20059;-34
2024/03/04 03:22:20;;;;;;;2.70;1.80;;;22.90;53.20;;;;;;5081449;28;20064;-34
2024/03/04 03:24:46;;;;;;;2.90;2.35;;;22.90;53.20;;;;;;5079170;28;20039;-33
2024/03/04 03:27:12;;;;;;;8.02;4.10;;;22.90;53.20;;;;;;5063806;28;20036;-34
2024/03/04 03:29:38;;;;;;;12.88;6.53;;;22.90;53.20;;;;;;5080684;28;20020;-34
2024/03/04 03:32:05;;;;;;;18.85;10.88;;;22.90;53.20;;;;;;5081910;28;20146;-34
2024/03/04 03:34:31;;;;;;;23.17;11.88;;;22.80;53.20;;;;;;5079668;28;20033;-34
2024/03/04 03:36:57;;;;;;;26.90;13.13;;;22.80;53.20;;;;;;5071176;28;20146;-34
2024/03/04 03:39:23;;;;;;;24.60;13.30;;;22.80;53.20;;;;;;5071660;28;20036;-33
2024/03/04 03:41:50;;;;;;;23.02;14.13;;;22.80;53.20;;;;;;5073714;28;20024;-34
2024/03/04 03:44:17;;;;;;;26.30;13.90;;;22.80;53.20;;;;;;5080812;28;20525;-33
2024/03/04 03:46:43;;;;;;;25.10;13.60;;;22.80;53.30;;;;;;5073376;28;20410;-34
2024/03/04 03:49:10;;;;;;;22.75;13.02;;;22.80;53.30;;;;;;5074236;28;20033;-34
2024/03/04 03:51:37;;;;;;;23.70;14.02;;;22.80;53.30;;;;;;5080824;28;20096;-34
2024/03/04 03:54:03;;;;;;;;;;;22.80;53.20;;;;;;5076696;28;20047;-34
2024/03/04 03:56:29;;;;;;;22.85;13.40;;;22.80;53.80;;;;;;5078929;28;19908;-34
2024/03/04 03:58:56;;;;;;;25.67;13.20;;;22.80;53.30;;;;;;5084864;28;20098;-34
2024/03/04 04:01:23;;;;;;;27.70;13.48;;;22.80;53.20;;;;;;5084988;28;20078;-35
2024/03/04 04:03:49;;;;;;;;;;;22.80;53.30;;;;;;5083429;28;20040;-35
2024/03/04 04:06:15;;;;;;;21.05;11.70;;;22.70;53.20;;;;;;5075253;28;20027;-35
2024/03/04 04:08:41;;;;;;;19.40;10.65;;;22.70;53.30;;;;;;5057890;28;20045;-34
2024/03/04 04:11:07;;;;;;;18.75;9.75;;;22.70;53.40;;;;;;5060598;28;20044;-34
2024/03/04 04:13:33;;;;;;;19.92;9.77;;;22.80;53.30;;;;;;5062844;28;20036;-34
2024/03/04 04:16:00;;;;;;;16.52;9.45;;;22.80;53.30;;;;;;5052854;28;20051;-34
2024/03/04 04:18:26;;;;;;;15.57;9.43;;;22.80;53.40;;;;;;5060090;28;20024;-35
2024/03/04 04:20:52;;;;;;;15.88;8.57;;;22.80;53.40;;;;;;5061263;28;20033;-35
2024/03/04 04:23:18;;;;;;;13.75;8.07;;;22.70;53.30;;;;;;5061736;28;20029;-35
2024/03/04 04:25:45;;;;;;;13.60;8.85;;;22.70;53.40;;;;;;5064613;28;20045;-34
2024/03/04 04:28:11;;;;;;;17.80;8.63;;;22.70;53.40;;;;;;5061419;28;20052;-34
2024/03/04 04:30:39;;;;;;;16.58;8.65;;;22.70;53.70;;;;;;5057799;28;20025;-34
2024/03/04 04:33:06;;;;;;;14.52;7.53;;;22.70;53.70;;;;;;5063613;28;20025;-34
2024/03/04 04:35:32;;;;;;;15.25;7.13;;;22.70;53.80;;;;;;5058587;28;20088;-34
2024/03/04 04:37:58;;;;;;;13.13;6.93;;;22.70;53.90;;;;;;5059722;28;20076;-34
2024/03/04 04:40:24;;;;;;;11.52;7.00;;;22.80;53.90;;;;;;5055012;28;20037;-34
2024/03/04 04:42:50;;;;;;;10.13;6.38;;;22.80;53.80;;;;;;5064620;28;20028;-34
2024/03/04 04:45:17;;;;;;;9.82;6.38;;;22.80;53.80;;;;;;5063677;28;20052;-32
2024/03/04 04:47:43;;;;;;;12.15;6.57;;;22.70;53.80;;;;;;5062361;28;20052;-32
2024/03/04 04:50:11;;;;;;;9.80;5.60;;;22.70;53.70;;;;;;5064591;28;20116;-33
2024/03/04 04:52:38;;;;;;;10.68;5.82;;;22.70;53.70;;;;;;5064228;28;20123;-33
2024/03/04 04:55:04;;;;;;;10.70;5.32;;;22.70;53.60;;;;;;5063646;28;20048;-33
2024/03/04 04:57:30;;;;;;;7.40;5.17;;;22.70;53.60;;;;;;5057100;28;20056;-33
2024/03/04 04:59:57;;;;;;;8.47;4.87;;;22.70;53.80;;;;;;5062594;28;20330;-33
2024/03/04 05:02:23;;;;;;;8.50;4.85;;;22.70;53.60;;;;;;5062291;28;20048;-34
2024/03/04 05:04:49;;;;;;;7.18;4.70;;;22.70;53.60;;;;;;5046225;28;20021;-33
2024/03/04 05:07:15;;;;;;;6.72;5.13;;;22.70;53.60;;;;;;5063267;28;20057;-33
2024/03/04 05:09:41;;;;;;;9.30;4.53;;;22.70;53.60;;;;;;5054149;28;20110;-33
2024/03/04 05:12:09;;;;;;;6.70;4.70;;;22.70;53.60;;;;;;5063923;28;20025;-34
2024/03/04 05:14:36;;;;;;;6.40;3.80;;;22.70;53.60;;;;;;5063409;28;20047;-33
2024/03/04 05:17:03;;;;;;;5.28;3.92;;;22.70;53.60;;;;;;5063890;28;20044;-34
2024/03/04 05:19:35;;;;;;;6.13;4.13;;;22.70;53.70;;;;;;5063240;28;20033;-33
2024/03/04 05:22:02;;;;;;;5.72;3.78;;;22.70;53.70;;;;;;5064143;28;20033;-34
2024/03/04 05:24:29;;;;;;;5.10;3.67;;;22.70;53.50;;;;;;5060855;28;20029;-41
2024/03/04 05:26:55;;;;;;;4.68;3.65;;;22.70;53.60;;;;;;5063162;28;20121;-33
2024/03/04 05:29:23;;;;;;;5.88;4.20;;;22.70;53.70;;;;;;5063289;28;20114;-34
2024/03/04 05:31:59;;;;;;;5.53;3.63;;;22.70;53.60;;;;;;5057275;28;20035;-33
2024/03/04 05:34:26;;;;;;;5.80;3.88;;;22.70;53.60;;;;;;5057316;28;20028;-33
2024/03/04 05:36:52;;;;;;;4.43;3.45;;;22.70;53.60;;;;;;5063305;28;20033;-33
2024/03/04 05:39:21;;;;;;;4.45;3.05;;;22.70;53.70;;;;;;5063292;28;20138;-33
2024/03/04 05:41:51;;;;;;;4.38;3.17;;;22.70;53.70;;;;;;5054821;28;20032;-33
2024/03/04 05:44:17;;;;;;;4.22;3.05;;;22.70;53.70;;;;;;5060321;28;20045;-34
2024/03/04 05:46:46;;;;;;;4.73;3.10;;;22.70;53.60;;;;;;5034317;28;20081;-33
2024/03/04 05:49:12;;;;;;;3.42;3.03;;;22.70;53.60;;;;;;5059374;28;20278;-33
2024/03/04 05:51:42;;;;;;;3.20;2.83;;;22.70;53.70;;;;;;5062809;28;20033;-33
2024/03/04 05:54:09;;;;;;;3.97;3.05;;;22.70;53.70;;;;;;5062183;28;20036;-33
2024/03/04 05:56:45;;;;;;;3.20;2.70;;;22.70;53.60;;;;;;5052238;28;20044;-33
2024/03/04 05:59:11;;;;;;;3.42;2.90;;;22.70;53.60;;;;;;5054136;28;20125;-33
2024/03/04 06:01:37;;;;;;;2.92;2.40;;;22.70;53.80;;;;;;5057000;28;20033;-33
2024/03/04 06:04:04;;;;;;;2.90;2.60;;;22.70;53.70;;;;;;5057207;28;20030;-33
2024/03/04 06:06:33;;;;;;;3.35;2.70;;;22.70;53.60;;;;;;5061007;28;20539;-34
2024/03/04 06:09:03;;;;;;;3.22;2.60;;;22.70;53.70;;;;;;5082717;28;20051;-33
2024/03/04 06:11:29;;;;;;;2.55;2.15;;;22.70;53.60;;;;;;5078050;28;20029;-34
2024/03/04 06:13:55;;;;;;;3.50;2.37;;;22.70;53.70;;;;;;5081485;28;20032;-34
2024/03/04 06:16:22;;;;;;;2.20;1.95;;;22.70;53.70;;;;;;5082088;28;20028;-33
2024/03/04 06:18:48;;;;;;;4.35;2.55;;;22.70;53.70;;;;;;5071756;28;20025;-33
2024/03/04 06:21:14;;;;;;;2.50;2.25;;;22.60;53.60;;;;;;5078716;28;20033;-33
2024/03/04 06:23:41;;;;;;;2.90;2.60;;;22.70;53.60;;;;;;5075537;28;20027;-33
2024/03/04 06:26:11;;;;;;;3.17;2.37;;;22.70;54.30;;;;;;5079854;28;20048;-32
2024/03/04 06:28:40;;;;;;;2.65;2.20;;;22.70;53.70;;;;;;5081741;28;20058;-33
2024/03/04 06:31:08;;;;;;;2.40;2.13;;;22.70;53.60;;;;;;5078925;28;20033;-35
2024/03/04 06:33:34;;;;;;;;;;;22.70;53.70;;;;;;5082467;28;20048;-35
2024/03/04 06:36:00;;;;;;;2.30;2.10;;;22.70;53.70;;;;;;5078795;28;19916;-34
2024/03/04 06:38:27;;;;;;;2.17;1.90;;;22.70;53.70;;;;;;5079847;28;20032;-34
2024/03/04 06:40:53;;;;;;;3.50;2.15;;;22.70;53.70;;;;;;5081724;28;20098;-34
2024/03/04 06:43:19;;;;;;;2.63;2.20;;;22.70;53.70;;;;;;5067381;28;20039;-34
2024/03/04 06:45:45;;;;;;;2.50;2.17;;;22.70;53.70;;;;;;5065446;28;20036;-34
2024/03/04 06:48:11;;;;;;;1.73;1.63;;;22.70;53.80;;;;;;5065152;28;20059;-32
2024/03/04 06:50:37;;;;;;;2.10;1.90;;;22.70;53.70;;;;;;5068762;28;20505;-36
2024/03/04 06:53:03;;;;;;;2.03;1.80;;;22.70;53.70;;;;;;5071401;28;20044;-33
2024/03/04 06:55:29;;;;;;;2.42;2.05;;;22.70;53.70;;;;;;5070754;28;20063;-33
2024/03/04 06:57:56;;;;;;;2.88;1.80;;;22.70;53.80;;;;;;5066966;28;20031;-33
2024/03/04 07:00:22;;;;;;;1.95;1.75;;;22.70;53.70;;;;;;5065612;28;21104;-33
2024/03/04 07:02:48;;;;;;;2.20;2.00;;;22.70;53.70;;;;;;5071216;28;20031;-33
2024/03/04 07:05:14;;;;;;;1.95;1.80;;;22.60;53.70;;;;;;5051243;28;20517;-33
2024/03/04 07:07:40;;;;;;;1.70;1.60;;;22.70;53.80;;;;;;5068753;28;20052;-33
2024/03/04 07:10:10;;;;;;;1.92;1.83;;;22.70;53.80;;;;;;5068235;28;20033;-33
2024/03/04 07:12:38;;;;;;;1.92;1.83;;;22.70;53.70;;;;;;5071701;28;20044;-33
2024/03/04 07:15:04;;;;;;;2.03;1.83;;;22.70;53.80;;;;;;5065811;28;20036;-34
2024/03/04 07:17:31;;;;;;;1.83;1.70;;;22.70;53.80;;;;;;5070355;28;20062;-33
2024/03/04 07:19:57;;;;;;;1.90;1.70;;;22.70;53.80;;;;;;5067905;28;20055;-32
2024/03/04 07:22:23;;;;;;;1.98;1.60;;;22.70;53.70;;;;;;5048531;28;20562;-33
2024/03/04 07:24:49;;;;;;;2.15;1.60;;;22.60;53.70;;;;;;5064109;28;20036;-33
2024/03/04 07:27:15;;;;;;;2.13;1.90;;;22.60;53.80;;;;;;5067240;28;20065;-32
2024/03/04 07:29:41;;;;;;;2.00;1.80;;;22.70;53.80;;;;;;5069260;28;20028;-33
2024/03/04 07:32:07;;;;;;;2.33;1.73;;;22.70;53.70;;;;;;5066397;28;20036;-33
2024/03/04 07:34:33;;;;;;;1.85;1.70;;;22.70;53.70;;;;;;5067320;28;20037;-33
2024/03/04 07:36:59;;;;;;;2.33;1.80;;;22.70;53.80;;;;;;5069007;28;20029;-33
2024/03/04 07:39:26;;;;;;;2.03;1.73;;;22.70;53.80;;;;;;5069708;28;20032;-33
2024/03/04 07:41:52;;;;;;;1.50;1.40;;;22.70;53.80;;;;;;5071493;28;21166;-33
2024/03/04 07:44:18;;;;;;;1.60;1.50;;;22.60;53.80;;;;;;5065872;28;20065;-33
2024/03/04 07:46:44;;;;;;;2.08;1.63;;;22.60;53.80;;;;;;5069421;28;20111;-32
2024/03/04 07:49:11;;;;;;;1.88;1.73;;;22.60;53.80;;;;;;5066611;28;20107;-33
2024/03/04 07:51:37;;;;;;;2.33;2.10;;;22.70;53.80;;;;;;5069844;28;20036;-33
2024/03/04 07:54:04;;;;;;;3.28;1.90;;;22.70;53.70;;;;;;5066187;28;20056;-33
2024/03/04 07:56:33;;;;;;;2.00;1.80;;;22.70;53.90;;;;;;5068233;28;20040;-34
2024/03/04 07:59:00;;;;;;;1.73;1.63;;;22.70;53.80;;;;;;5068577;28;20050;-33
2024/03/04 08:01:26;;;;;;;1.83;1.70;;;22.70;53.80;;;;;;5070615;28;20032;-33
2024/03/04 08:03:52;;;;;;;1.75;1.65;;;22.70;53.80;;;;;;5069614;28;20513;-41
2024/03/04 08:06:20;;;;;;;1.80;1.70;;;22.60;53.80;;;;;;5070003;28;20067;-33
2024/03/04 08:08:48;;;;;;;2.00;1.80;;;22.60;53.80;;;;;;5067781;28;20409;-40
2024/03/04 08:11:15;;;;;;;1.80;1.70;;;22.70;53.80;;;;;;5068301;28;20068;-33
2024/03/04 08:13:41;;;;;;;1.67;1.58;;;22.70;53.80;;;;;;5064357;28;20127;-33
2024/03/04 08:16:07;;;;;;;1.70;1.60;;;22.70;53.80;;;;;;5070360;28;20032;-33
2024/03/04 08:18:33;;;;;;;2.20;2.00;;;22.70;53.80;;;;;;5070086;28;20040;-33
2024/03/04 08:20:59;;;;;;;1.65;1.55;;;22.70;53.90;;;;;;5070643;28;20029;-33
2024/03/04 08:23:25;;;;;;;1.73;1.63;;;22.70;53.80;;;;;;5070152;28;20028;-33
2024/03/04 08:25:51;;;;;;;1.73;1.63;;;22.60;53.90;;;;;;5063763;28;20059;-33
2024/03/04 08:28:18;;;;;;;2.00;1.80;;;22.60;53.80;;;;;;5064771;28;20033;-34
2024/03/04 08:30:44;;;;;;;1.90;1.80;;;22.60;54.00;;;;;;5067147;28;20032;-33
2024/03/04 08:33:10;;;;;;;1.85;1.58;;;22.70;54.00;;;;;;5066140;28;20044;-33
2024/03/04 08:35:36;;;;;;;1.73;1.63;;;22.70;53.80;;;;;;5068566;28;20033;-34
2024/03/04 08:38:02;;;;;;;1.90;1.80;;;22.70;53.90;;;;;;5065948;28;20065;-33
2024/03/04 08:40:30;;;;;;;1.90;1.73;;;22.70;53.90;;;;;;5068261;28;20036;-33
2024/03/04 08:42:57;;;;;;;1.70;1.60;;;22.70;53.90;;;;;;5071320;28;20029;-33
2024/03/04 08:45:23;;;;;;;1.98;1.75;;;22.70;54.00;;;;;;5078108;28;20024;-33
2024/03/04 08:47:50;;;;;;;1.60;1.50;;;22.60;53.90;;;;;;5072438;28;20048;-34
2024/03/04 08:50:16;;;;;;;;;;;22.60;53.90;;;;;;5084583;28;20051;-34
2024/03/04 08:52:42;;;;;;;1.48;1.38;;;22.60;53.90;;;;;;5076726;28;20586;-34
2024/03/04 08:55:09;;;;;;;1.77;1.60;;;22.70;54.10;;;;;;5077326;28;20029;-35
2024/03/04 08:57:35;;;;;;;1.40;1.30;;;22.70;53.90;;;;;;5083825;28;20025;-35
2024/03/04 09:00:01;;;;;;;1.45;1.35;;;22.70;53.90;;;;;;5084428;28;20043;-35
2024/03/04 09:02:27;;;;;;;1.50;1.40;;;22.70;54.00;;;;;;5083730;28;20160;-34
2024/03/04 09:04:53;;;;;;;1.70;1.50;;;22.70;53.90;;;;;;5081495;28;20033;-34
2024/03/04 09:07:21;;;;;;;1.60;1.50;;;22.70;54.00;;;;;;5078865;28;20049;-34
2024/03/04 09:09:53;;;;;;;1.70;1.60;;;22.60;54.00;;;;;;5078465;28;20033;-34
2024/03/04 09:12:20;;;;;;;1.60;1.50;;;22.60;53.90;;;;;;5080462;28;20033;-34
2024/03/04 09:14:46;;;;;;;1.40;1.30;;;22.60;54.00;;;;;;5079037;28;20032;-35
2024/03/04 09:17:32;;;;;;;1.38;1.27;;;22.70;54.00;;;;;;5020282;28;20044;-34
2024/03/04 09:20:17;;;;;;;1.40;1.30;;;22.70;53.90;;;;;;5018817;28;20506;-35
2024/03/04 09:22:43;;;;;;;1.52;1.42;;;22.70;54.00;;;;;;5007568;28;20085;-34
2024/03/04 09:25:09;;;;;;;1.85;1.30;;;22.70;54.00;;;;;;5018937;28;20068;-34
2024/03/04 09:27:36;;;;;;;1.30;1.20;;;22.70;53.90;;;;;;5020369;28;20102;-34
2024/03/04 09:30:06;;;;;;;1.63;1.52;;;22.60;53.90;;;;;;5020629;28;20111;-34
2024/03/04 09:32:32;;;;;;;1.73;1.52;;;22.60;53.90;;;;;;5020462;28;20034;-35
2024/03/04 09:34:58;;;;;;;1.27;1.17;;;22.60;54.00;;;;;;5020143;28;20045;-35
2024/03/04 09:37:24;;;;;;;1.45;1.35;;;22.70;54.00;;;;;;5021333;28;20038;-35
2024/03/04 09:39:50;;;;;;;1.30;1.20;;;22.70;53.90;;;;;;5019816;28;20056;-35
2024/03/04 09:42:17;;;;;;;1.67;1.50;;;22.70;54.00;;;;;;5021008;28;20037;-35
2024/03/04 09:44:43;;;;;;;1.40;1.30;;;22.70;54.00;;;;;;5004174;28;20057;-35
2024/03/04 09:47:10;;;;;;;1.60;1.50;;;22.70;54.00;;;;;;5004475;28;20102;-35
2024/03/04 09:49:36;;;;;;;1.30;1.20;;;22.60;54.10;;;;;;4996057;28;20086;-35
2024/03/04 09:52:03;;;;;;;1.38;1.27;;;22.60;53.90;;;;;;5019423;28;20030;-34
2024/03/04 09:54:35;;;;;;;1.50;1.40;;;22.60;54.10;;;;;;5045090;28;20032;-34
2024/03/04 09:57:02;;;;;;;1.60;1.50;;;22.70;54.20;;;;;;5082306;28;20050;-35
2024/03/04 09:59:28;;;;;;;1.55;1.45;;;22.70;54.10;;;;;;5082064;28;20052;-34
2024/03/04 10:01:57;;;;;;;1.17;1.08;;;22.70;54.00;;;;;;5047930;28;20052;-34
2024/03/04 10:04:23;;;;;;;1.48;1.38;;;22.70;54.00;;;;;;5082695;28;20745;-35
2024/03/04 10:06:49;;;;;;;1.45;1.35;;;22.70;54.00;;;;;;5083183;28;20134;-34
2024/03/04 10:09:15;;;;;;;1.63;1.52;;;22.60;54.10;;;;;;5082633;28;20590;-35
2024/03/04 10:11:42;;;;;;;1.83;1.30;;;22.60;54.00;;;;;;5082767;28;20033;-34
2024/03/04 10:14:09;;;;;;;1.80;1.70;;;22.60;53.90;;;;;;5046818;28;20040;-33
2024/03/04 10:16:38;;;;;;;1.37;1.27;;;22.60;54.10;;;;;;5082785;28;20107;-38
2024/03/04 10:19:04;;;;;;;1.40;1.30;;;22.70;54.70;;;;;;5082502;28;20481;-34
2024/03/04 10:21:31;;;;;;;1.53;1.43;;;22.70;54.00;;;;;;5082850;28;20120;-35
2024/03/04 10:23:58;;;;;;;1.30;1.20;;;22.70;54.10;;;;;;5082788;28;20281;-34
2024/03/04 10:26:25;;;;;;;2.03;1.67;;;22.70;54.10;;;;;;5082678;28;20121;-34
2024/03/04 10:28:51;;;;;;;1.30;1.20;;;22.70;54.10;;;;;;5079269;28;20785;-34
2024/03/04 10:31:18;;;;;;;1.55;1.23;;;22.70;54.10;;;;;;5039827;28;20078;-34
2024/03/04 10:33:44;;;;;;;;;;;22.60;54.10;;;;;;5077430;28;20056;-33
2024/03/04 10:36:16;;;;;;;1.15;1.05;;;22.60;54.10;;;;;;5067666;28;19908;-33
2024/03/04 10:38:47;;;;;;;1.75;1.30;;;22.70;54.20;;;;;;5074500;28;20033;-34
2024/03/04 10:41:19;;;;;;;1.50;1.40;;;22.70;54.10;;;;;;5082544;28;20312;-35
2024/03/04 10:43:45;;;;;;;1.33;1.23;;;22.70;54.10;;;;;;5074732;28;20044;-35
2024/03/04 10:46:12;;;;;;;1.35;1.25;;;22.70;54.10;;;;;;5082374;28;20044;-36
2024/03/04 10:48:39;;;;;;;1.40;1.30;;;22.70;54.20;;;;;;5081680;28;20035;-35
2024/03/04 10:51:06;;;;;;;1.50;1.40;;;22.60;54.10;;;;;;5082579;28;20496;-35
2024/03/04 10:53:32;;;;;;;;;;;22.60;54.10;;;;;;5082196;28;20397;-35
2024/03/04 10:56:05;;;;;;;1.40;1.30;;;22.60;54.10;;;;;;5082208;28;19913;-35
2024/03/04 10:58:37;;;;;;;1.35;1.25;;;22.60;54.10;;;;;;5055415;28;20051;-37
2024/03/04 11:01:06;;;;;;;1.70;1.60;;;22.70;54.10;;;;;;5076433;28;20032;-34
2024/03/04 11:03:32;;;;;;;1.30;1.20;;;22.70;54.10;;;;;;5064132;28;20043;-33
2024/03/04 11:05:59;;;;;;;1.30;1.20;;;22.70;54.20;;;;;;5063283;28;20413;-33
2024/03/04 11:08:35;;;;;;;1.38;1.27;;;22.70;54.20;;;;;;5064519;28;20128;-34
2024/03/04 11:11:17;;;;;;;1.23;1.13;;;22.60;54.10;;;;;;5045342;28;20028;-33
2024/03/04 11:13:57;;;;;;;1.63;1.50;;;22.60;54.10;;;;;;5061228;28;20031;-34
2024/03/04 11:16:46;;;;;;;1.38;1.20;;;22.60;54.10;;;;;;5030281;28;20076;-34
2024/03/04 11:19:22;;;;;;;1.10;1.00;;;22.70;54.30;;;;;;5043660;28;20025;-34
2024/03/04 11:21:49;;;;;;;1.17;1.08;;;22.70;54.10;;;;;;5028932;28;20025;-34
2024/03/04 11:24:16;;;;;;;1.00;1.00;;;22.70;54.20;;;;;;5058814;28;20045;-34
2024/03/04 11:26:42;;;;;;;;;;;22.70;54.20;;;;;;5062224;28;20703;-33
2024/03/04 11:29:08;;;;;;;0.98;0.90;;;22.70;54.20;;;;;;5061579;28;19908;-32
2024/03/04 11:31:34;;;;;;;1.60;0.93;;;22.60;54.20;;;;;;5043643;28;20057;-33
2024/03/04 11:34:10;;;;;;;1.80;1.40;;;22.60;54.20;;;;;;5061475;28;20036;-34
2024/03/04 11:36:37;;;;;;;1.15;0.90;;;22.60;54.20;;;;;;5061663;28;20029;-33
2024/03/04 11:39:07;;;;;;;0.98;0.90;;;22.60;54.30;;;;;;5061411;28;20052;-34
2024/03/04 11:41:37;;;;;;;1.13;1.02;;;22.70;54.10;;;;;;5042610;28;20033;-34
2024/03/04 11:44:03;;;;;;;1.20;1.10;;;22.70;54.20;;;;;;5060634;28;20049;-34
2024/03/04 11:46:31;;;;;;;1.00;1.00;;;22.70;54.20;;;;;;5061506;28;20039;-34
2024/03/04 11:49:17;;;;;;;1.30;1.20;;;22.70;54.20;;;;;;5040935;28;20526;-33
2024/03/04 11:51:45;;;;;;;1.00;0.90;;;22.60;54.20;;;;;;5045970;28;20037;-34
2024/03/04 11:54:11;;;;;;;1.15;0.98;;;22.60;54.20;;;;;;5056320;28;20033;-34
2024/03/04 11:56:37;;;;;;;0.77;0.77;;;22.60;54.30;;;;;;5030061;28;20031;-34
2024/03/04 11:59:03;;;;;;;1.10;1.00;;;22.60;54.40;;;;;;5045318;28;20029;-34
2024/03/04 12:01:29;;;;;;;2.15;1.02;;;22.60;54.40;;;;;;5042452;28;20037;-34
2024/03/04 12:03:55;;;;;;;1.67;1.50;;;22.60;54.60;;;;;;5042682;28;20629;-34
2024/03/04 12:06:21;;;;;;;5.07;1.60;;;22.60;55.90;;;;;;5041845;28;20049;-34
2024/03/04 12:08:47;;;;;;;4.72;1.60;;;22.60;56.20;;;;;;5063250;28;20055;-34
2024/03/04 12:11:15;;;;;;;4.53;1.65;;;22.60;56.80;;;;;;5043526;28;20623;-34
2024/03/04 12:13:41;;;;;;;4.72;1.98;;;22.60;56.70;;;;;;5063157;28;20033;-35
2024/03/04 12:16:08;;;;;;;6.32;1.80;;;22.60;57.30;;;;;;5064176;28;20049;-33
2024/03/04 12:18:34;;;;;;;8.15;2.10;;;22.60;57.80;;;;;;5063972;28;20033;-33
2024/03/04 12:21:05;;;;;;;4.97;1.90;;;22.60;58.50;;;;;;5066692;28;20033;-34
2024/03/04 12:23:31;;;;;;;6.60;1.75;;;22.60;58.50;;;;;;5048982;28;20039;-33
2024/03/04 12:26:13;;;;;;;5.40;1.85;;;22.60;58.70;;;;;;5080320;28;20040;-34
2024/03/04 12:28:39;;;;;;;6.90;1.58;;;22.60;58.50;;;;;;5081091;28;20040;-34
2024/03/04 12:31:11;;;;;;;2.92;1.60;;;22.70;58.50;;;;;;5084721;28;20029;-33
2024/03/04 12:33:38;;;;;;;4.18;1.70;;;22.70;57.90;;;;;;5084098;28;20033;-33
2024/03/04 12:36:07;;;;;;;6.78;1.70;;;22.70;57.60;;;;;;5085207;28;20032;-33
2024/03/04 12:38:33;;;;;;;2.53;1.52;;;22.70;57.30;;;;;;5084322;28;20040;-32
2024/03/04 12:40:59;;;;;;;3.20;1.20;;;22.70;57.40;;;;;;5084582;28;20162;-33
2024/03/04 12:43:26;;;;;;;3.70;1.50;;;22.70;57.30;;;;;;5080222;28;20024;-33
2024/03/04 12:45:52;;;;;;;3.03;1.20;;;22.70;57.30;;;;;;5078811;28;20036;-33
2024/03/04 12:48:23;;;;;;;3.00;1.40;;;22.60;57.10;;;;;;5066453;28;20066;-34